»·PEaware :: N49LP KIYK-54CL

N49LP :: KIYK-54CL

FLIGHT INFORMATION

Flight Status: Arrived
Operator: Privately registered:
United States
More flights under this callsign
Pilot: Les P. (123)
Aircraft: BEECH AIRCRAFT BONANZA
(BE35)
More flights by this aircraft type
Origin: KIYK Inyokern
United States
Destination: 54CL Lake Riverside Estates
United States
More flights between these airports :: More routes between these airports
Route: ZALJE V197 PDZ HEMET
File this flight plan on PilotEdge
Remarks:
Altitude:
(Current/Filed)
11,500ft
Speed:
(Current/Filed)
162kts
Departed: 29-May-19 12:56 PM
Arrived: 29-May-19 02:14 PM
Distance/Time
Traveled:
138nm/1:18
Distance/Time
To Go:
Arrived

Flight Plot

Page will automatically refresh every two minutes.

Flight plan parsing failed; only flown route is shown


Map Options




Map Legend


Flown Route
Filed Route
Departure Airport
Arrival Airport
Navaid (VOR, NDB)
Fix

Horizontal Profiles

Position Reports

Time Latitude Longitude Heading Altitude Ground
Speed
29-May-19 12:18 35.653614 -117.827028 295 2460ft 0kts
29-May-19 12:20 35.653614 -117.827028 295 2460ft 0kts
29-May-19 12:21 35.653614 -117.827028 295 2460ft 0kts
29-May-19 12:22 35.653614 -117.827028 295 2460ft 0kts
29-May-19 12:23 35.653614 -117.827028 295 2460ft 0kts
29-May-19 12:24 35.653614 -117.827028 295 2460ft 0kts
29-May-19 12:25 35.653614 -117.827028 295 2460ft 0kts
29-May-19 12:26 35.653614 -117.827028 295 2460ft 0kts
29-May-19 12:27 35.653614 -117.827028 295 2460ft 0kts
29-May-19 12:28 35.653614 -117.827028 295 2460ft 0kts
29-May-19 12:29 35.653614 -117.827028 295 2460ft 0kts
29-May-19 12:30 35.653614 -117.827028 295 2460ft 0kts
29-May-19 12:31 35.653614 -117.827028 295 2460ft 0kts
29-May-19 12:32 35.653614 -117.827028 295 2460ft 0kts
29-May-19 12:33 35.653614 -117.827028 295 2460ft 0kts
29-May-19 12:34 35.653614 -117.827028 295 2460ft 0kts
29-May-19 12:35 35.653614 -117.827028 295 2460ft 0kts
29-May-19 12:35 35.653614 -117.827028 295 2460ft 0kts
29-May-19 12:37 35.653614 -117.827028 295 2460ft 0kts
29-May-19 12:38 35.653614 -117.827028 295 2460ft 0kts
29-May-19 12:39 35.653614 -117.827028 295 2460ft 0kts
29-May-19 12:39 35.653614 -117.827028 295 2460ft 0kts
29-May-19 12:41 35.653614 -117.827028 295 2460ft 0kts
29-May-19 12:42 35.653614 -117.827028 295 2460ft 0kts
29-May-19 12:42 35.653615 -117.827030 295 2460ft 0kts
29-May-19 12:43 35.653616 -117.827033 295 2460ft 0kts
29-May-19 12:45 35.653617 -117.827036 295 2460ft 0kts
29-May-19 12:45 35.653618 -117.827038 295 2460ft 0kts
29-May-19 12:46 35.653619 -117.827041 295 2460ft 0kts
29-May-19 12:47 35.653620 -117.827043 295 2460ft 0kts
29-May-19 12:48 35.653622 -117.827050 295 2460ft 0kts
29-May-19 12:49 35.656403 -117.825336 31 2460ft 16kts
29-May-19 12:50 35.660581 -117.822283 30 2460ft 17kts
29-May-19 12:51 35.662199 -117.822266 345 2460ft 0kts
29-May-19 12:52 35.662202 -117.822268 345 2460ft 0kts
29-May-19 12:53 35.662222 -117.822274 345 2460ft 1kts
29-May-19 12:54 35.662548 -117.822915 208 2460ft 0kts
29-May-19 12:55 35.658337 -117.825986 210 2460ft 73kts
29-May-19 12:56 35.636262 -117.842300 203 3150ft 97kts
29-May-19 12:57 35.613591 -117.865213 218 3920ft 106kts
29-May-19 12:58 35.590644 -117.886454 207 4640ft 102kts
29-May-19 12:59 35.567858 -117.906855 212 5276ft 101kts
29-May-19 13:00 35.544790 -117.926783 211 6000ft 101kts
29-May-19 13:01 35.521421 -117.946736 211 6694ft 102kts
29-May-19 13:02 35.497920 -117.966808 211 7418ft 103kts
29-May-19 13:03 35.474392 -117.986890 211 8094ft 102kts
29-May-19 13:04 35.450968 -118.006852 211 8695ft 102kts
29-May-19 13:05 35.427673 -118.026688 212 9304ft 101kts
29-May-19 13:06 35.404445 -118.046444 212 9921ft 101kts
29-May-19 13:07 35.381148 -118.066280 213 10468ft 106kts
29-May-19 13:08 35.352010 -118.091313 214 10517ft 146kts
29-May-19 13:09 35.317041 -118.121105 214 10520ft 157kts
29-May-19 13:10 35.280694 -118.151953 214 10519ft 160kts
29-May-19 13:11 35.244455 -118.182675 214 10544ft 156kts
29-May-19 13:12 35.209622 -118.212185 214 10559ft 150kts
29-May-19 13:13 35.175238 -118.241261 214 10558ft 150kts
29-May-19 13:14 35.141055 -118.270120 214 10558ft 149kts
29-May-19 13:15 35.106876 -118.298968 214 10570ft 150kts
29-May-19 13:16 35.072322 -118.328074 214 10564ft 151kts
29-May-19 13:17 35.037637 -118.357267 214 10565ft 151kts
29-May-19 13:18 35.002680 -118.386686 214 10553ft 154kts
29-May-19 13:19 34.967477 -118.416263 214 10554ft 153kts
29-May-19 13:20 34.931123 -118.442319 183 10557ft 155kts
29-May-19 13:21 34.899954 -118.412870 134 10992ft 131kts
29-May-19 13:22 34.875735 -118.381961 134 11442ft 124kts
29-May-19 13:23 34.850403 -118.349024 133 11530ft 144kts
29-May-19 13:24 34.822061 -118.312040 133 11522ft 153kts
29-May-19 13:25 34.792743 -118.273749 133 11503ft 155kts
29-May-19 13:26 34.763320 -118.235346 133 11491ft 156kts
29-May-19 13:27 34.734091 -118.197269 133 11490ft 152kts
29-May-19 13:28 34.704885 -118.159257 133 11485ft 155kts
29-May-19 13:29 34.675615 -118.121197 133 11487ft 154kts
29-May-19 13:30 34.646546 -118.083441 133 11503ft 152kts
29-May-19 13:31 34.614187 -118.050590 149 11498ft 154kts
29-May-19 13:32 34.578024 -118.023471 148 11497ft 151kts
29-May-19 13:33 34.537371 -118.011853 169 11492ft 154kts
29-May-19 13:34 34.496525 -117.995878 158 11494ft 155kts
29-May-19 13:35 34.456841 -117.976069 157 11494ft 154kts
29-May-19 13:36 34.417580 -117.956340 157 11496ft 153kts
29-May-19 13:37 34.378630 -117.936820 157 11501ft 150kts
29-May-19 13:38 34.340038 -117.917507 157 11499ft 150kts
29-May-19 13:39 34.301419 -117.898201 157 11498ft 150kts
29-May-19 13:40 34.262803 -117.878912 157 11503ft 149kts
29-May-19 13:41 34.223804 -117.859458 158 11515ft 154kts
29-May-19 13:42 34.184476 -117.839855 157 11516ft 152kts
29-May-19 13:43 34.145571 -117.820465 158 11516ft 150kts
29-May-19 13:44 34.106687 -117.801162 157 11518ft 152kts
29-May-19 13:45 34.071145 -117.775927 123 11517ft 151kts
29-May-19 13:46 34.045906 -117.734421 127 11485ft 156kts
29-May-19 13:47 34.019786 -117.692643 127 11483ft 156kts
29-May-19 13:48 33.993705 -117.650801 127 11476ft 156kts
29-May-19 13:49 33.967931 -117.609407 127 11465ft 153kts
29-May-19 13:50 33.942563 -117.568743 127 11458ft 152kts
29-May-19 13:51 33.917126 -117.527213 117 11455ft 156kts
29-May-19 13:52 33.900785 -117.479345 112 11460ft 153kts
29-May-19 13:53 33.884377 -117.432049 113 11448ft 153kts
29-May-19 13:54 33.867976 -117.384931 113 11457ft 151kts
29-May-19 13:55 33.851686 -117.338159 113 11468ft 151kts
29-May-19 13:56 33.835106 -117.290638 113 11468ft 157kts
29-May-19 13:57 33.818159 -117.242124 112 11472ft 158kts
29-May-19 13:58 33.801176 -117.193603 112 11503ft 157kts
29-May-19 13:59 33.784159 -117.145031 112 11510ft 157kts
29-May-19 14:00 33.767192 -117.096673 112 11340ft 163kts
29-May-19 14:01 33.748815 -117.044418 113 10936ft 174kts
29-May-19 14:02 33.730088 -116.991273 113 10139ft 175kts
29-May-19 14:03 33.711125 -116.937508 113 9230ft 173kts
29-May-19 14:04 33.691728 -116.884632 125 8377ft 172kts
29-May-19 14:05 33.649989 -116.859586 157 7513ft 168kts
29-May-19 14:06 33.607798 -116.841335 165 7038ft 168kts
29-May-19 14:07 33.563689 -116.823477 139 6405ft 171kts
29-May-19 14:08 33.547896 -116.772155 105 5548ft 156kts
29-May-19 14:09 33.535973 -116.723084 110 4876ft 142kts
29-May-19 14:10 33.521516 -116.728137 268 4394ft 117kts
29-May-19 14:11 33.515127 -116.765475 266 4021ft 105kts
29-May-19 14:12 33.520948 -116.793951 290 3413ft 56kts
29-May-19 14:13 33.522260 -116.798131 289 3413ft 0kts
29-May-19 14:14 33.517842 -116.784279 289 3562ft 84kts
29-May-19 14:15 33.522259 -116.798131 289 3413ft 0kts
29-May-19 14:16 33.522482 -116.798357 328 3413ft 5kts
29-May-19 14:17 33.522333 -116.798575 125 3413ft 8kts
29-May-19 14:18 33.521639 -116.798365 285 3413ft 0kts
29-May-19 14:19 33.521640 -116.798367 285 3413ft 0kts
29-May-19 14:20 33.521640 -116.798368 285 3413ft 0kts
29-May-19 14:21 33.521640 -116.798368 285 3413ft 0kts
29-May-19 14:22 33.521640 -116.798368 285 3413ft 0kts
29-May-19 14:23 33.521640 -116.798368 285 3413ft 0kts

Navigation Log

Ident Type
Flight plan parsing failed, navigation log unavailable